createdAt,value
2019-01-31T00:00:12.598Z,-1.20
2019-01-31T00:02:42.217Z,-1.30
2019-01-31T00:05:15.077Z,-1.60
2019-01-31T00:07:49.933Z,-1.70
2019-01-31T00:10:03.661Z,-1.90
2019-01-31T00:13:10.159Z,-2.00
2019-01-31T00:15:35.057Z,-2.20
2019-01-31T00:18:10.593Z,-2.30
2019-01-31T00:20:46.609Z,-2.50
2019-01-31T00:23:42.533Z,-2.60
2019-01-31T00:26:37.862Z,-2.70
2019-01-31T00:29:20.584Z,-2.80
2019-01-31T00:32:04.775Z,-2.80
2019-01-31T00:34:48.907Z,-2.70
2019-01-31T00:37:00.042Z,-2.60
2019-01-31T00:39:39.834Z,-2.50
2019-01-31T00:42:17.831Z,-2.50
2019-01-31T00:44:57.774Z,-2.50
2019-01-31T00:47:14.639Z,-2.50
2019-01-31T00:49:50.522Z,-2.40
2019-01-31T00:52:27.979Z,-2.40
2019-01-31T00:55:02.225Z,-2.30
2019-01-31T00:57:28.639Z,-2.20
2019-01-31T01:00:07.695Z,-2.10
2019-01-31T01:02:53.250Z,-2.10
2019-01-31T01:05:26.701Z,-2.00
2019-01-31T01:08:05.267Z,-2.00
2019-01-31T01:10:50.301Z,-2.10
2019-01-31T01:13:15.461Z,-2.10
2019-01-31T01:15:34.676Z,-2.00
2019-01-31T01:17:52.688Z,-2.10
2019-01-31T01:20:25.122Z,-2.20
2019-01-31T01:23:03.775Z,-2.20
2019-01-31T01:25:48.670Z,-2.30
2019-01-31T01:28:02.169Z,-2.30
2019-01-31T01:30:29.118Z,-2.40
2019-01-31T01:33:14.262Z,-2.30
2019-01-31T01:35:45.892Z,-2.30
2019-01-31T01:38:07.725Z,-2.40
2019-01-31T01:40:49.127Z,-2.40
2019-01-31T01:43:19.539Z,-2.50
2019-01-31T01:46:07.950Z,-2.60
2019-01-31T01:48:41.193Z,-2.70
2019-01-31T01:51:01.798Z,-2.70
2019-01-31T01:53:38.128Z,-2.60
2019-01-31T01:56:07.021Z,-2.60
2019-01-31T01:58:23.654Z,-2.70
2019-01-31T02:00:49.275Z,-2.70
2019-01-31T02:03:38.934Z,-2.80
2019-01-31T02:06:31.718Z,-2.90
2019-01-31T02:09:17.560Z,-2.90
2019-01-31T02:12:04.699Z,-2.80
2019-01-31T02:14:47.371Z,-2.70
2019-01-31T02:17:34.515Z,-2.70
2019-01-31T02:20:22.514Z,-2.70
2019-01-31T02:22:50.691Z,-2.70
2019-01-31T02:25:21.050Z,-2.60
2019-01-31T02:28:21.443Z,-2.60
2019-01-31T02:30:47.435Z,-2.50
2019-01-31T02:33:35.829Z,-2.40
2019-01-31T02:36:19.038Z,-2.30
2019-01-31T02:38:33.287Z,-2.30
2019-01-31T02:41:15.133Z,-2.30
2019-01-31T02:43:37.953Z,-2.30
2019-01-31T02:46:06.991Z,-2.20
2019-01-31T02:48:44.922Z,-2.20
2019-01-31T02:51:32.140Z,-2.20
2019-01-31T02:53:50.734Z,-2.20
2019-01-31T02:56:43.977Z,-2.10
2019-01-31T02:59:20.603Z,-2.10
2019-01-31T03:02:24.159Z,-2.00
2019-01-31T03:04:53.211Z,-1.90
2019-01-31T03:07:35.527Z,-1.80
2019-01-31T03:09:54.517Z,-1.80
2019-01-31T03:12:08.367Z,-1.70
2019-01-31T03:14:35.807Z,-1.60
2019-01-31T03:17:04.666Z,-1.50
2019-01-31T03:19:21.738Z,-1.50
2019-01-31T03:21:42.804Z,-1.50
2019-01-31T03:24:16.181Z,-1.40
2019-01-31T03:27:04.299Z,-1.40
2019-01-31T03:29:47.160Z,-1.40
2019-01-31T03:32:11.790Z,-1.40
2019-01-31T03:34:49.636Z,-1.40
2019-01-31T03:37:23.537Z,-1.30
2019-01-31T03:39:53.810Z,-1.30
2019-01-31T03:42:32.123Z,-1.30
2019-01-31T03:44:51.472Z,-1.30
2019-01-31T03:47:41.679Z,-1.30
2019-01-31T03:50:07.579Z,-1.30
2019-01-31T03:52:47.587Z,-1.20
2019-01-31T03:55:21.797Z,-1.20
2019-01-31T03:57:51.248Z,-1.10
2019-01-31T04:00:04.915Z,-1.10
2019-01-31T04:02:40.898Z,-1.10
2019-01-31T04:05:01.670Z,-1.10
2019-01-31T04:07:05.631Z,-1.20
2019-01-31T04:09:11.087Z,-1.10
2019-01-31T04:11:15.093Z,-1.00
2019-01-31T04:13:18.978Z,-1.00
2019-01-31T04:15:22.872Z,-1.00
2019-01-31T04:17:26.792Z,-1.00
2019-01-31T04:19:30.662Z,-0.90
2019-01-31T04:21:34.644Z,-0.90
2019-01-31T04:23:38.472Z,-0.90
2019-01-31T04:25:42.675Z,-0.90
2019-01-31T04:27:46.512Z,-0.90
2019-01-31T04:29:50.350Z,-0.80
2019-01-31T04:31:55.586Z,-0.80
2019-01-31T04:33:59.341Z,-0.80
2019-01-31T04:36:03.327Z,-0.80
2019-01-31T04:38:07.195Z,-0.80
2019-01-31T04:40:11.145Z,-0.80
2019-01-31T04:42:15.058Z,-0.80
2019-01-31T04:44:18.985Z,-0.80
2019-01-31T04:46:23.010Z,-0.70
2019-01-31T04:48:26.868Z,-0.70
2019-01-31T04:50:31.148Z,-0.70
2019-01-31T04:52:34.912Z,-0.70
2019-01-31T04:54:38.716Z,-0.70
2019-01-31T04:56:42.538Z,-0.70
2019-01-31T04:58:46.542Z,-0.60
2019-01-31T05:00:50.503Z,-0.60
2019-01-31T05:02:54.359Z,-0.60
2019-01-31T05:04:58.454Z,-0.60
2019-01-31T05:07:02.290Z,-0.60
2019-01-31T05:09:07.876Z,-0.60
2019-01-31T05:11:11.732Z,-0.60
2019-01-31T05:13:15.609Z,-0.60
2019-01-31T05:15:19.607Z,-0.60
2019-01-31T05:17:23.536Z,-0.60
2019-01-31T05:19:27.412Z,-0.50
2019-01-31T05:21:31.289Z,-0.50
2019-01-31T05:23:35.303Z,-0.50
2019-01-31T05:25:39.182Z,-0.60
2019-01-31T05:27:43.109Z,-0.60
2019-01-31T05:29:47.512Z,-0.70
2019-01-31T05:31:52.851Z,-0.70
2019-01-31T05:33:56.721Z,-0.70
2019-01-31T05:36:00.612Z,-0.70
2019-01-31T05:38:11.362Z,-0.60
2019-01-31T05:40:16.063Z,-0.60
2019-01-31T05:42:19.875Z,-0.70
2019-01-31T05:44:24.033Z,-0.70
2019-01-31T05:46:28.196Z,-0.80
2019-01-31T05:48:32.043Z,-0.80
2019-01-31T05:50:36.283Z,-0.80
2019-01-31T05:52:40.157Z,-0.80
2019-01-31T05:54:44.149Z,-0.80
2019-01-31T05:56:48.868Z,-0.80
2019-01-31T05:58:52.719Z,-0.70
2019-01-31T06:00:56.520Z,-0.70
2019-01-31T06:03:00.322Z,-0.70
2019-01-31T06:05:06.430Z,-0.60
2019-01-31T06:07:11.475Z,-0.70
2019-01-31T06:09:15.598Z,-0.70
2019-01-31T06:11:19.456Z,-0.70
2019-01-31T06:13:23.334Z,-0.60
2019-01-31T06:15:27.169Z,-0.60
2019-01-31T06:17:31.012Z,-0.60
2019-01-31T06:19:34.913Z,-0.60
2019-01-31T06:21:38.743Z,-0.60
2019-01-31T06:23:42.570Z,-0.60
2019-01-31T06:25:46.404Z,-0.60
2019-01-31T06:27:50.232Z,-0.60
2019-01-31T06:29:54.123Z,-0.60
2019-01-31T06:31:57.971Z,-0.60
2019-01-31T06:34:01.760Z,-0.50
2019-01-31T06:36:05.799Z,-0.50
2019-01-31T06:38:09.645Z,-0.50
2019-01-31T06:40:16.085Z,-0.60
2019-01-31T06:42:19.936Z,-0.60
2019-01-31T06:44:24.031Z,-0.60
2019-01-31T06:46:28.227Z,-0.60
2019-01-31T06:48:34.150Z,-0.50
2019-01-31T06:50:37.689Z,-0.50
2019-01-31T06:52:41.672Z,-0.60
2019-01-31T06:54:45.552Z,-0.60
2019-01-31T06:56:49.360Z,-0.60
2019-01-31T06:58:53.129Z,-0.60
2019-01-31T07:00:57.029Z,-0.60
2019-01-31T07:03:00.975Z,-0.60
2019-01-31T07:05:05.855Z,-0.60
2019-01-31T07:07:09.698Z,-0.60
2019-01-31T07:09:13.693Z,-0.60
2019-01-31T07:11:17.526Z,-0.60
2019-01-31T07:13:21.738Z,-0.60
2019-01-31T07:15:25.592Z,-0.60
2019-01-31T07:17:29.394Z,-0.60
2019-01-31T07:19:33.327Z,-0.60
2019-01-31T07:21:37.272Z,-0.60
2019-01-31T07:23:41.477Z,-0.50
2019-01-31T07:25:45.406Z,-0.50
2019-01-31T07:27:49.487Z,-0.50
2019-01-31T07:29:53.687Z,-0.50
2019-01-31T07:31:57.546Z,-0.50
2019-01-31T07:34:01.424Z,-0.50
2019-01-31T07:36:05.432Z,-0.40
2019-01-31T07:38:09.362Z,-0.40
2019-01-31T07:40:15.191Z,-0.40
2019-01-31T07:42:18.999Z,-0.30
2019-01-31T07:44:22.832Z,-0.30
2019-01-31T07:46:26.750Z,-0.30
2019-01-31T07:48:30.950Z,-0.30
2019-01-31T07:50:34.992Z,-0.20
2019-01-31T07:52:38.755Z,-0.20
2019-01-31T07:54:42.574Z,-0.20
2019-01-31T07:56:46.441Z,-0.20
2019-01-31T07:58:50.355Z,-0.10
2019-01-31T08:00:54.239Z,-0.10
2019-01-31T08:02:58.494Z,0.00
2019-01-31T08:05:02.332Z,0.10
2019-01-31T08:07:06.272Z,0.10
2019-01-31T08:09:10.359Z,0.20
2019-01-31T08:11:14.199Z,0.20
2019-01-31T08:13:18.067Z,0.30
2019-01-31T08:15:22.053Z,0.40
2019-01-31T08:17:25.982Z,0.40
2019-01-31T08:19:29.821Z,0.40
2019-01-31T08:21:34.118Z,0.50
2019-01-31T08:23:38.016Z,0.50
2019-01-31T08:25:41.969Z,0.50
2019-01-31T08:27:46.016Z,0.50
2019-01-31T08:29:49.867Z,0.50
2019-01-31T08:31:53.627Z,0.50
2019-01-31T08:33:57.715Z,0.40
2019-01-31T08:36:01.537Z,0.40
2019-01-31T08:38:05.554Z,0.40
2019-01-31T08:40:10.412Z,0.40
2019-01-31T08:42:14.345Z,0.40
2019-01-31T08:44:18.154Z,0.40
2019-01-31T08:46:22.100Z,0.50
2019-01-31T08:48:26.141Z,0.50
2019-01-31T08:50:33.385Z,0.50
2019-01-31T08:52:37.725Z,0.50
2019-01-31T08:54:41.561Z,0.50
2019-01-31T08:56:45.467Z,0.50
2019-01-31T08:58:49.291Z,0.50
2019-01-31T09:00:53.156Z,0.50
2019-01-31T09:02:57.640Z,0.50
2019-01-31T09:05:06.076Z,0.40
2019-01-31T09:07:09.907Z,0.50
2019-01-31T09:09:14.691Z,0.50
2019-01-31T09:11:19.016Z,0.50
2019-01-31T09:13:25.007Z,0.50
2019-01-31T09:15:28.844Z,0.50
2019-01-31T09:17:32.765Z,0.50
2019-01-31T09:19:36.670Z,0.40
2019-01-31T09:22:03.776Z,0.20
2019-01-31T09:24:36.363Z,0.20
2019-01-31T09:27:24.671Z,0.20
2019-01-31T09:30:25.036Z,0.30
2019-01-31T09:33:11.582Z,0.40
2019-01-31T09:36:12.067Z,0.60
2019-01-31T09:38:47.387Z,0.80
2019-01-31T09:41:08.479Z,0.90
2019-01-31T09:43:55.107Z,1.10
2019-01-31T09:46:49.626Z,1.10
2019-01-31T09:49:01.071Z,1.10
2019-01-31T09:51:22.323Z,1.10
2019-01-31T09:53:52.231Z,1.00
2019-01-31T09:56:26.540Z,0.90
2019-01-31T09:58:44.342Z,0.80
2019-01-31T10:01:43.676Z,0.90
2019-01-31T10:04:14.116Z,0.90
2019-01-31T10:06:49.339Z,0.90
2019-01-31T10:09:40.831Z,0.90
2019-01-31T10:12:16.387Z,0.90
2019-01-31T10:14:39.223Z,0.90
2019-01-31T10:16:55.041Z,0.90
2019-01-31T10:19:48.913Z,1.00
2019-01-31T10:22:14.657Z,1.00
2019-01-31T10:25:08.908Z,1.10
2019-01-31T10:27:35.884Z,1.00
2019-01-31T10:30:01.045Z,1.00
2019-01-31T10:32:21.695Z,1.10
2019-01-31T10:34:46.970Z,1.00
2019-01-31T10:37:02.535Z,1.00
2019-01-31T10:39:30.434Z,1.00
2019-01-31T10:42:02.521Z,1.00
2019-01-31T10:44:26.035Z,0.90
2019-01-31T10:46:48.411Z,1.00
2019-01-31T10:49:49.239Z,1.00
2019-01-31T10:52:27.137Z,1.10
2019-01-31T10:55:14.767Z,1.20
2019-01-31T10:58:24.105Z,1.20
2019-01-31T11:01:24.770Z,1.30
2019-01-31T11:03:57.604Z,1.30
2019-01-31T11:06:47.054Z,1.40
2019-01-31T11:09:16.533Z,1.30
2019-01-31T11:11:50.515Z,1.30
2019-01-31T11:14:19.280Z,1.40
2019-01-31T11:16:50.270Z,1.40
2019-01-31T11:19:25.855Z,1.40
2019-01-31T11:21:56.999Z,1.60
2019-01-31T11:24:27.501Z,1.70
2019-01-31T11:27:11.496Z,1.80
2019-01-31T11:29:39.819Z,1.90
2019-01-31T11:32:20.675Z,2.00
2019-01-31T11:34:40.539Z,2.00
2019-01-31T11:37:13.260Z,2.00
2019-01-31T11:39:51.836Z,2.00
2019-01-31T11:42:25.651Z,2.00
2019-01-31T11:44:54.187Z,2.00
2019-01-31T11:47:19.263Z,2.00
2019-01-31T11:50:04.320Z,2.00
2019-01-31T11:52:52.470Z,2.00
2019-01-31T11:55:36.720Z,2.00
2019-01-31T11:58:20.749Z,1.90
2019-01-31T12:00:26.066Z,1.70
2019-01-31T12:02:29.962Z,1.60
2019-01-31T12:04:33.846Z,1.60
2019-01-31T12:06:37.854Z,1.50
2019-01-31T12:08:41.842Z,1.60
2019-01-31T12:10:45.715Z,1.50
2019-01-31T12:12:49.618Z,1.40
2019-01-31T12:14:53.513Z,1.30
2019-01-31T12:16:57.501Z,1.10
2019-01-31T12:19:01.403Z,0.90
2019-01-31T12:21:05.359Z,0.90
2019-01-31T12:23:09.342Z,0.90
2019-01-31T12:25:13.947Z,0.90
2019-01-31T12:27:17.858Z,0.80
2019-01-31T12:29:21.876Z,0.80
2019-01-31T12:31:25.880Z,0.80
2019-01-31T12:33:30.987Z,0.70
2019-01-31T12:35:35.351Z,0.70
2019-01-31T12:37:39.230Z,0.60
2019-01-31T12:39:43.064Z,0.60
2019-01-31T12:41:47.076Z,0.60
2019-01-31T12:43:50.912Z,0.70
2019-01-31T12:45:54.796Z,0.80
2019-01-31T12:47:58.764Z,0.80
2019-01-31T12:50:02.733Z,1.00
2019-01-31T12:52:06.711Z,1.00
2019-01-31T12:54:11.005Z,1.00
2019-01-31T12:56:14.809Z,1.10
2019-01-31T12:58:18.932Z,1.10
2019-01-31T13:00:24.928Z,1.10
2019-01-31T13:02:28.765Z,1.00
2019-01-31T13:04:32.814Z,1.00
2019-01-31T13:06:37.133Z,1.00
2019-01-31T13:08:40.972Z,1.00
2019-01-31T13:10:44.956Z,1.00
2019-01-31T13:12:49.262Z,0.90
2019-01-31T13:14:53.248Z,0.90
2019-01-31T13:16:57.158Z,0.70
2019-01-31T13:19:00.986Z,0.50
2019-01-31T13:21:05.164Z,0.40
2019-01-31T13:23:09.074Z,0.30
2019-01-31T13:25:13.569Z,0.30
2019-01-31T13:27:17.495Z,0.30
2019-01-31T13:29:21.387Z,0.30
2019-01-31T13:31:25.339Z,0.30
2019-01-31T13:33:29.277Z,0.20
2019-01-31T13:35:33.252Z,0.10
2019-01-31T13:37:37.107Z,0.10
2019-01-31T13:39:41.091Z,0.10
2019-01-31T13:41:45.048Z,0.10
2019-01-31T13:43:57.389Z,0.10
2019-01-31T13:45:54.952Z,0.20
2019-01-31T13:48:01.385Z,0.30
2019-01-31T13:50:05.618Z,0.50
2019-01-31T13:52:09.535Z,0.70
2019-01-31T13:54:13.873Z,0.80
2019-01-31T13:56:22.546Z,0.90
2019-01-31T13:58:26.383Z,1.10
2019-01-31T14:00:30.343Z,1.20
2019-01-31T14:02:34.373Z,1.30
2019-01-31T14:04:38.203Z,1.50
2019-01-31T14:06:42.119Z,1.70
2019-01-31T14:08:46.086Z,2.00
2019-01-31T14:10:49.911Z,2.20
2019-01-31T14:12:54.140Z,2.40
2019-01-31T14:14:58.153Z,2.60
2019-01-31T14:17:02.108Z,2.80
2019-01-31T14:19:06.089Z,4.30
2019-01-31T14:21:09.955Z,5.20
2019-01-31T14:23:13.848Z,5.40
2019-01-31T14:25:18.051Z,5.40
2019-01-31T14:27:23.300Z,5.10
2019-01-31T14:29:27.288Z,4.70
2019-01-31T14:31:31.143Z,4.20
2019-01-31T14:33:35.123Z,3.90
2019-01-31T14:35:39.100Z,3.60
2019-01-31T14:37:43.144Z,3.50
2019-01-31T14:39:47.023Z,3.20
2019-01-31T14:41:50.986Z,2.90
2019-01-31T14:43:54.851Z,2.70
2019-01-31T14:45:58.710Z,2.40
2019-01-31T14:48:02.584Z,2.20
2019-01-31T14:50:09.143Z,1.90
2019-01-31T14:52:13.016Z,1.70
2019-01-31T14:54:16.859Z,1.60
2019-01-31T14:56:20.736Z,1.40
2019-01-31T14:58:25.100Z,1.40
2019-01-31T15:00:30.372Z,1.30
2019-01-31T15:02:34.224Z,1.30
2019-01-31T15:04:38.068Z,1.20
2019-01-31T15:06:41.979Z,1.20
2019-01-31T15:08:45.920Z,1.20
2019-01-31T15:10:49.843Z,1.10
2019-01-31T15:12:53.959Z,1.10
2019-01-31T15:14:57.899Z,1.10
2019-01-31T15:17:02.121Z,1.10
2019-01-31T15:19:06.035Z,1.10
2019-01-31T15:21:10.004Z,1.10
2019-01-31T15:23:14.204Z,1.10
2019-01-31T15:25:18.115Z,1.00
2019-01-31T15:27:22.024Z,0.90
2019-01-31T15:29:25.975Z,0.90
2019-01-31T15:31:29.947Z,0.90
2019-01-31T15:33:33.920Z,0.90
2019-01-31T15:35:38.191Z,0.80
2019-01-31T15:37:42.099Z,0.70
2019-01-31T15:39:46.091Z,0.70
2019-01-31T15:41:50.029Z,0.70
2019-01-31T15:43:53.916Z,0.70
2019-01-31T15:45:57.780Z,0.70
2019-01-31T15:48:01.806Z,0.70
2019-01-31T15:50:06.809Z,0.60
2019-01-31T15:52:10.640Z,0.50
2019-01-31T15:54:14.660Z,0.50
2019-01-31T15:56:18.616Z,0.60
2019-01-31T15:58:22.567Z,0.50
2019-01-31T16:00:39.111Z,0.40
2019-01-31T16:02:42.943Z,0.40
2019-01-31T16:04:46.887Z,0.30
2019-01-31T16:06:51.707Z,0.20
2019-01-31T16:08:55.463Z,0.20
2019-01-31T16:10:59.438Z,0.20
2019-01-31T16:13:04.035Z,0.20
2019-01-31T16:15:09.512Z,0.20
2019-01-31T16:17:13.480Z,0.20
2019-01-31T16:19:17.384Z,0.20
2019-01-31T16:21:21.268Z,0.20
2019-01-31T16:23:25.360Z,0.20
2019-01-31T16:25:29.624Z,0.10
2019-01-31T16:27:33.576Z,0.10
2019-01-31T16:29:37.465Z,0.10
2019-01-31T16:31:41.781Z,0.10
2019-01-31T16:33:45.637Z,0.00
2019-01-31T16:35:50.327Z,0.10
2019-01-31T16:37:54.268Z,0.10
2019-01-31T16:39:58.108Z,0.10
2019-01-31T16:42:02.225Z,0.00
2019-01-31T16:44:07.313Z,-0.10
2019-01-31T16:46:11.218Z,-0.10
2019-01-31T16:48:15.182Z,-0.20
2019-01-31T16:50:19.287Z,-0.30
2019-01-31T16:52:23.130Z,-0.30
2019-01-31T16:54:27.120Z,-0.30
2019-01-31T16:56:31.040Z,-0.30
2019-01-31T16:58:35.027Z,-0.30
2019-01-31T17:00:39.080Z,-0.30
2019-01-31T17:02:55.036Z,-0.30
2019-01-31T17:04:59.096Z,-0.40
2019-01-31T17:07:02.936Z,-0.50
2019-01-31T17:09:09.459Z,-0.50
2019-01-31T17:11:13.361Z,-0.50
2019-01-31T17:13:17.199Z,-0.60
2019-01-31T17:15:21.521Z,-0.70
2019-01-31T17:17:25.314Z,-0.80
2019-01-31T17:19:29.123Z,-0.90
2019-01-31T17:21:33.138Z,-1.00
2019-01-31T17:23:37.043Z,-1.10
2019-01-31T17:25:41.049Z,-1.10
2019-01-31T17:27:45.083Z,-1.20
2019-01-31T17:30:12.979Z,-1.30
2019-01-31T17:32:16.908Z,-1.40
2019-01-31T17:34:20.769Z,-1.30
2019-01-31T17:36:24.594Z,-1.40
2019-01-31T17:38:28.581Z,-1.50
2019-01-31T17:40:35.212Z,-1.70
2019-01-31T17:42:38.986Z,-1.80
2019-01-31T17:44:42.849Z,-1.80
2019-01-31T17:46:46.806Z,-1.80
2019-01-31T17:48:50.694Z,-1.80
2019-01-31T17:50:54.695Z,-1.70
2019-01-31T17:52:58.578Z,-1.70
2019-01-31T17:55:02.532Z,-1.80
2019-01-31T17:57:06.422Z,-1.80
2019-01-31T17:59:10.247Z,-1.80
2019-01-31T18:01:14.332Z,-1.80
2019-01-31T18:03:18.870Z,-1.70
2019-01-31T18:05:22.802Z,-1.70
2019-01-31T18:07:26.745Z,-1.60
2019-01-31T18:09:30.504Z,-1.50
2019-01-31T18:11:34.591Z,-1.50
2019-01-31T18:13:38.518Z,-1.50
2019-01-31T18:15:42.674Z,-1.60
2019-01-31T18:17:46.827Z,-1.70
2019-01-31T18:19:51.413Z,-1.90
2019-01-31T18:21:55.325Z,-2.00
2019-01-31T18:23:59.254Z,-2.10
2019-01-31T18:26:03.252Z,-2.20
2019-01-31T18:28:07.224Z,-2.30
2019-01-31T18:30:15.108Z,-2.20
2019-01-31T18:32:18.942Z,-2.20
2019-01-31T18:34:22.783Z,-2.30
2019-01-31T18:36:26.658Z,-2.50
2019-01-31T18:38:30.476Z,-2.70
2019-01-31T18:40:34.463Z,-2.90
2019-01-31T18:42:38.376Z,-3.00
2019-01-31T18:44:43.758Z,-3.20
2019-01-31T18:46:47.745Z,-3.20
2019-01-31T18:48:51.617Z,-3.20
2019-01-31T18:50:55.639Z,-3.20
2019-01-31T18:52:59.651Z,-3.30
2019-01-31T18:55:03.839Z,-3.40
2019-01-31T18:57:07.746Z,-3.30
2019-01-31T18:59:11.659Z,-3.20
2019-01-31T19:01:15.595Z,-3.10
2019-01-31T19:03:19.671Z,-3.10
2019-01-31T19:05:24.529Z,-3.10
2019-01-31T19:07:28.463Z,-3.10
2019-01-31T19:09:32.347Z,-3.10
2019-01-31T19:11:36.165Z,-3.10
2019-01-31T19:13:42.996Z,-3.10
2019-01-31T19:15:46.928Z,-3.20
2019-01-31T19:17:50.829Z,-3.20
2019-01-31T19:19:54.979Z,-3.20
2019-01-31T19:21:58.887Z,-3.20
2019-01-31T19:24:02.882Z,-3.10
2019-01-31T19:26:06.950Z,-3.00
2019-01-31T19:28:30.007Z,-2.90
2019-01-31T19:30:46.258Z,-2.80
2019-01-31T19:32:50.203Z,-2.70
2019-01-31T19:34:54.117Z,-2.70
2019-01-31T19:36:58.075Z,-2.60
2019-01-31T19:39:02.304Z,-2.50
2019-01-31T19:41:06.260Z,-2.50
2019-01-31T19:43:10.268Z,-2.30
2019-01-31T19:45:22.227Z,-2.20
2019-01-31T19:47:26.163Z,-2.20
2019-01-31T19:49:30.110Z,-2.10
2019-01-31T19:51:34.098Z,-2.10
2019-01-31T19:53:38.120Z,-2.10
2019-01-31T19:55:42.566Z,-2.10
2019-01-31T19:57:46.556Z,-2.20
2019-01-31T19:59:50.529Z,-2.20
2019-01-31T20:01:54.451Z,-2.10
2019-01-31T20:03:58.351Z,-2.00
2019-01-31T20:06:03.055Z,-2.00
2019-01-31T20:08:09.331Z,-2.00
2019-01-31T20:10:15.732Z,-2.00
2019-01-31T20:12:19.679Z,-2.00
2019-01-31T20:14:43.016Z,-1.90
2019-01-31T20:16:46.995Z,-1.90
2019-01-31T20:18:50.890Z,-1.80
2019-01-31T20:20:54.802Z,-1.70
2019-01-31T20:22:59.583Z,-1.70
2019-01-31T20:25:03.347Z,-1.80
2019-01-31T20:27:07.734Z,-1.70
2019-01-31T20:29:11.627Z,-1.70
2019-01-31T20:31:15.471Z,-1.70
2019-01-31T20:33:19.386Z,-1.60
2019-01-31T20:35:23.771Z,-1.50
2019-01-31T20:37:27.607Z,-1.50
2019-01-31T20:39:31.586Z,-1.40
2019-01-31T20:41:37.168Z,-1.30
2019-01-31T20:43:40.985Z,-1.30
2019-01-31T20:45:44.993Z,-1.20
2019-01-31T20:47:48.975Z,-1.20
2019-01-31T20:49:52.817Z,-1.20
2019-01-31T20:51:56.779Z,-1.10
2019-01-31T20:54:00.773Z,-1.10
2019-01-31T20:56:23.997Z,-1.20
2019-01-31T20:58:28.060Z,-1.10
2019-01-31T21:00:40.285Z,-1.20
2019-01-31T21:02:44.241Z,-1.10
2019-01-31T21:04:48.146Z,-1.10
2019-01-31T21:06:52.900Z,-1.10
2019-01-31T21:08:56.865Z,-1.00
2019-01-31T21:11:00.819Z,-1.00
2019-01-31T21:13:06.313Z,-1.10
2019-01-31T21:15:13.118Z,-1.00
2019-01-31T21:17:17.213Z,-1.00
2019-01-31T21:19:21.347Z,-1.10
2019-01-31T21:21:25.235Z,-1.10
2019-01-31T21:23:29.152Z,-1.00
2019-01-31T21:25:34.470Z,-1.00
2019-01-31T21:27:38.640Z,-1.00
2019-01-31T21:29:42.582Z,-1.00
2019-01-31T21:31:47.551Z,-1.00
2019-01-31T21:33:51.729Z,-1.00
2019-01-31T21:35:55.724Z,-1.00
2019-01-31T21:37:59.856Z,-1.00
2019-01-31T21:40:04.530Z,-0.90
2019-01-31T21:42:08.498Z,-0.90
2019-01-31T21:44:12.413Z,-0.80
2019-01-31T21:46:16.371Z,-0.90
2019-01-31T21:48:20.240Z,-0.90
2019-01-31T21:50:24.456Z,-0.90
2019-01-31T21:52:28.483Z,-0.90
2019-01-31T21:54:32.365Z,-0.90
2019-01-31T21:56:36.286Z,-0.90
2019-01-31T21:58:40.130Z,-1.00
2019-01-31T22:00:44.144Z,-0.90
2019-01-31T22:02:48.137Z,-0.80
2019-01-31T22:04:52.227Z,-0.80
2019-01-31T22:06:56.085Z,-0.80
2019-01-31T22:09:00.408Z,-0.80
2019-01-31T22:11:04.363Z,-0.80
2019-01-31T22:13:08.240Z,-0.80
2019-01-31T22:15:15.705Z,-0.80
2019-01-31T22:17:19.651Z,-0.80
2019-01-31T22:19:23.418Z,-0.80
2019-01-31T22:21:27.299Z,-0.80
2019-01-31T22:23:31.111Z,-0.70
2019-01-31T22:25:35.034Z,-0.70
2019-01-31T22:27:38.995Z,-0.70
2019-01-31T22:29:42.804Z,-0.60
2019-01-31T22:31:46.695Z,-0.60
2019-01-31T22:33:50.553Z,-0.60
2019-01-31T22:35:54.433Z,-0.60
2019-01-31T22:37:58.314Z,-0.60
2019-01-31T22:40:02.323Z,-0.60
2019-01-31T22:42:06.275Z,-0.60
2019-01-31T22:44:10.045Z,-0.50
2019-01-31T22:46:13.974Z,-0.50
2019-01-31T22:48:17.800Z,-0.50
2019-01-31T22:50:22.263Z,-0.50
2019-01-31T22:52:26.336Z,-0.50
2019-01-31T22:54:30.087Z,-0.40
2019-01-31T22:56:33.968Z,-0.40
2019-01-31T22:58:37.871Z,-0.30
2019-01-31T23:01:14.532Z,-0.30
2019-01-31T23:03:18.655Z,-0.30
2019-01-31T23:05:22.576Z,-0.20
2019-01-31T23:07:26.550Z,-0.20
2019-01-31T23:09:30.382Z,-0.20
2019-01-31T23:11:35.063Z,-0.20
2019-01-31T23:13:38.977Z,-0.20
2019-01-31T23:15:42.980Z,-0.20
2019-01-31T23:17:46.995Z,-0.20
2019-01-31T23:19:50.863Z,-0.20
2019-01-31T23:21:54.747Z,-0.20
2019-01-31T23:23:58.725Z,-0.20
2019-01-31T23:26:02.684Z,-0.30
2019-01-31T23:28:06.902Z,-0.20
2019-01-31T23:30:11.636Z,-0.20
2019-01-31T23:32:15.557Z,-0.20
2019-01-31T23:34:19.434Z,-0.20
2019-01-31T23:36:23.337Z,-0.20
2019-01-31T23:38:27.323Z,-0.20
2019-01-31T23:40:31.280Z,-0.20
2019-01-31T23:42:35.203Z,-0.20
2019-01-31T23:44:39.079Z,-0.30
2019-01-31T23:46:43.101Z,-0.30
2019-01-31T23:48:47.088Z,-0.30
2019-01-31T23:50:50.975Z,-0.20
2019-01-31T23:52:54.883Z,-0.20
2019-01-31T23:54:58.874Z,-0.10
2019-01-31T23:57:02.753Z,-0.10
2019-01-31T23:59:25.839Z,-0.10
